Time;durP1;ratioP1;P1;durP2;ratioP2;P2;SDS_P1;SDS_P2;PMS_P1;PMS_P2;Temp;Humidity;BMP_temperature;BMP_pressure;BME280_temperature;BME280_humidity;BME280_pressure;Samples;Min_cycle;Max_cycle;Signal;HPM_P1;HPM_P2
2023/05/27 00:02:27;;;;;;;19.40;5.43;;;;;11.60;102237.00;;;;10388487;28;20210;-75
2023/05/27 00:07:29;;;;;;;19.57;4.77;;;;;11.50;102235.00;;;;10392327;28;20644;-77
2023/05/27 00:12:30;;;;;;;17.70;4.27;;;;;11.40;102238.00;;;;10356156;28;20298;-77
2023/05/27 00:17:31;;;;;;;14.00;3.90;;;;;11.30;102238.00;;;;10373334;28;20802;-76
2023/05/27 00:22:34;;;;;;;18.20;4.50;;;;;11.20;102246.00;;;;10391280;28;20583;-75
2023/05/27 00:27:35;;;;;;;13.97;4.33;;;;;11.20;102248.00;;;;10373521;28;20827;-75
2023/05/27 00:32:37;;;;;;;20.50;5.40;;;;;11.10;102232.00;;;;10359406;28;20224;-76
2023/05/27 00:37:38;;;;;;;22.40;5.73;;;;;11.00;102246.00;;;;10359130;28;20656;-76
2023/05/27 00:42:40;;;;;;;15.67;4.50;;;;;10.90;102237.00;;;;10396575;28;20745;-76
2023/05/27 00:47:41;;;;;;;16.67;4.93;;;;;10.80;102234.00;;;;10394739;28;21841;-75
2023/05/27 00:52:43;;;;;;;17.37;5.63;;;;;10.80;102229.00;;;;10389584;28;20512;-74
2023/05/27 00:57:44;;;;;;;17.50;4.57;;;;;10.70;102235.00;;;;10373093;28;20886;-75
2023/05/27 01:02:46;;;;;;;14.50;4.63;;;;;10.60;102228.00;;;;10407696;28;20228;-76
2023/05/27 01:08:20;;;;;;;23.03;5.87;;;;;10.60;102229.00;;;;10469729;28;20212;-76
2023/05/27 01:13:30;;;;;;;17.63;5.20;;;;;10.50;102220.00;;;;10465444;28;20662;-79
2023/05/27 01:18:33;;;;;;;16.30;4.90;;;;;10.40;102223.00;;;;10494295;28;20266;-79
2023/05/27 01:23:34;;;;;;;17.90;4.50;;;;;10.40;102216.00;;;;10474658;28;20189;-80
2023/05/27 01:28:36;;;;;;;15.23;4.83;;;;;10.30;102211.00;;;;10493805;28;20247;-78
2023/05/27 01:33:42;;;;;;;17.83;5.53;;;;;10.20;102206.00;;;;10455491;28;20646;-78
2023/05/27 01:38:46;;;;;;;14.47;4.70;;;;;10.20;102200.00;;;;10470908;28;20213;-77
2023/05/27 01:43:48;;;;;;;14.87;4.97;;;;;10.10;102196.00;;;;10455959;28;20206;-76
2023/05/27 01:48:50;;;;;;;17.30;5.30;;;;;10.00;102193.00;;;;10404848;28;20269;-72
2023/05/27 01:53:51;;;;;;;20.90;4.80;;;;;9.90;102200.00;;;;10453697;28;20240;-72
2023/05/27 01:58:53;;;;;;;20.83;5.37;;;;;9.90;102200.00;;;;10456026;28;21974;-77
2023/05/27 02:03:55;;;;;;;15.97;4.90;;;;;9.80;102186.00;;;;10383781;28;20220;-77
2023/05/27 02:08:56;;;;;;;17.63;5.97;;;;;9.70;102180.00;;;;10381810;28;20795;-76
2023/05/27 02:13:59;;;;;;;28.13;5.97;;;;;9.70;102179.00;;;;10377729;28;20213;-76
2023/05/27 02:19:02;;;;;;;18.00;5.27;;;;;9.60;102172.00;;;;10395026;28;20236;-76
2023/05/27 02:24:03;;;;;;;15.43;4.97;;;;;9.50;102179.00;;;;10405186;28;20212;-76
2023/05/27 02:29:05;;;;;;;21.57;5.90;;;;;9.50;102180.00;;;;10489059;28;20559;-77
2023/05/27 02:34:06;;;;;;;15.50;4.97;;;;;9.40;102182.00;;;;10455865;28;20201;-78
2023/05/27 02:39:08;;;;;;;13.30;4.93;;;;;9.40;102182.00;;;;10450095;28;20255;-79
2023/05/27 02:44:09;;;;;;;17.90;5.30;;;;;9.30;102180.00;;;;10429000;28;20224;-76
2023/05/27 02:49:10;;;;;;;15.50;5.23;;;;;9.20;102183.00;;;;10376166;28;20201;-76
2023/05/27 02:54:12;;;;;;;16.43;5.73;;;;;9.10;102178.00;;;;10395448;28;20207;-80
2023/05/27 02:59:13;;;;;;;19.37;5.70;;;;;9.10;102182.00;;;;10508726;28;20217;-79
2023/05/27 03:04:16;;;;;;;19.40;5.10;;;;;9.00;102185.00;;;;10408813;28;20240;-76
2023/05/27 03:09:17;;;;;;;17.00;5.40;;;;;9.00;102190.00;;;;10399953;28;20610;-77
2023/05/27 03:14:18;;;;;;;12.80;5.07;;;;;8.90;102181.00;;;;10401127;28;21297;-77
2023/05/27 03:19:20;;;;;;;16.83;5.70;;;;;8.90;102184.00;;;;10345420;28;20256;-76
2023/05/27 03:24:22;;;;;;;19.47;5.13;;;;;8.80;102187.00;;;;10382676;28;20209;-76
2023/05/27 03:29:23;;;;;;;19.67;6.00;;;;;8.80;102190.00;;;;10382975;28;20698;-76
2023/05/27 03:34:25;;;;;;;14.33;5.03;;;;;8.70;102191.00;;;;10378580;28;20301;-77
2023/05/27 03:39:26;;;;;;;17.73;5.53;;;;;8.70;102199.00;;;;10380075;28;20232;-77
2023/05/27 03:44:32;;;;;;;20.27;6.47;;;;;8.60;102190.00;;;;10377744;28;20300;-77
2023/05/27 03:49:34;;;;;;;23.43;6.67;;;;;8.60;102193.00;;;;10420849;28;20202;-72
2023/05/27 03:54:37;;;;;;;16.13;4.80;;;;;8.70;102188.00;;;;10402257;28;20306;-75
2023/05/27 03:59:38;;;;;;;18.97;5.17;;;;;8.70;102191.00;;;;10392785;28;20228;-75
2023/05/27 04:04:39;;;;;;;21.27;5.87;;;;;8.70;102194.00;;;;10392790;28;20590;-74
2023/05/27 04:09:41;;;;;;;15.13;5.33;;;;;8.70;102184.00;;;;10358052;28;20211;-75
2023/05/27 04:14:42;;;;;;;16.27;5.20;;;;;8.80;102183.00;;;;10394817;28;20292;-73
2023/05/27 04:19:44;;;;;;;18.90;5.60;;;;;8.90;102181.00;;;;10375494;28;20219;-74
2023/05/27 04:24:47;;;;;;;13.43;5.10;;;;;8.90;102181.00;;;;10373004;28;20220;-75
2023/05/27 04:29:48;;;;;;;15.20;6.10;;;;;9.00;102181.00;;;;10361347;28;20773;-75
2023/05/27 04:34:51;;;;;;;18.93;5.63;;;;;9.10;102184.00;;;;10357605;28;20851;-74
2023/05/27 04:39:53;;;;;;;18.87;5.90;;;;;9.20;102183.00;;;;10376061;28;20228;-75
2023/05/27 04:44:54;;;;;;;20.77;6.43;;;;;9.30;102172.00;;;;10375229;28;20217;-74
2023/05/27 04:49:56;;;;;;;20.53;5.43;;;;;9.50;102181.00;;;;10379758;28;20705;-74
2023/05/27 04:54:57;;;;;;;18.80;5.97;;;;;9.70;102181.00;;;;10373870;28;20216;-74
2023/05/27 05:05:14;;;;;;;16.57;6.50;;;;;10.20;102183.00;;;;10396225;28;20308;-74
2023/05/27 05:10:16;;;;;;;19.57;7.03;;;;;10.50;102169.00;;;;10383038;28;20571;-73
2023/05/27 05:15:23;;;;;;;18.33;7.00;;;;;10.80;102177.00;;;;10425226;28;20220;-73
2023/05/27 05:20:28;;;;;;;20.83;6.87;;;;;11.00;102176.00;;;;10470983;28;20204;-73
2023/05/27 05:25:30;;;;;;;16.13;6.40;;;;;11.30;102163.00;;;;10449643;28;20208;-75
2023/05/27 05:30:31;;;;;;;16.37;6.43;;;;;11.60;102162.00;;;;10395153;28;20686;-75
2023/05/27 05:35:33;;;;;;;22.23;8.20;;;;;12.00;102163.00;;;;10397543;28;20228;-75
2023/05/27 05:40:54;;;;;;;18.63;6.80;;;;;12.40;102166.00;;;;10381206;28;20204;-74
2023/05/27 05:45:56;;;;;;;14.57;6.90;;;;;12.70;102153.00;;;;10378684;28;20205;-75
2023/05/27 05:51:00;;;;;;;16.70;6.47;;;;;13.10;102155.00;;;;10376632;28;20565;-74
2023/05/27 05:56:02;;;;;;;18.40;6.13;;;;;13.30;102151.00;;;;10364573;28;20228;-75
2023/05/27 06:01:05;;;;;;;17.80;6.63;;;;;13.60;102161.00;;;;10354864;28;20842;-74
2023/05/27 06:06:11;;;;;;;15.37;6.70;;;;;13.90;102159.00;;;;10378392;28;20201;-76
2023/05/27 06:11:31;;;;;;;15.87;6.97;;;;;14.10;102159.00;;;;10376183;28;20529;-76
2023/05/27 06:16:35;;;;;;;19.87;6.33;;;;;14.60;102154.00;;;;10437375;28;20248;-76
2023/05/27 06:21:37;;;;;;;12.73;6.43;;;;;14.90;102163.00;;;;10373750;28;20211;-77
2023/05/27 06:27:04;;;;;;;19.43;7.60;;;;;15.10;102157.00;;;;10402650;28;20232;-76
2023/05/27 06:32:06;;;;;;;18.37;6.63;;;;;15.40;102145.00;;;;10462102;28;20215;-77
2023/05/27 06:37:07;;;;;;;15.80;6.10;;;;;15.80;102155.00;;;;10462827;28;20563;-77
2023/05/27 06:42:09;;;;;;;19.00;6.60;;;;;16.10;102144.00;;;;10473673;28;20205;-73
2023/05/27 06:47:18;;;;;;;17.38;6.75;;;;;16.40;102138.00;;;;10461896;28;20279;-72
2023/05/27 06:52:20;;;;;;;17.90;6.07;;;;;16.90;102133.00;;;;10507947;28;20612;-72
2023/05/27 06:57:51;;;;;;;18.20;6.32;;;;;16.80;102133.00;;;;10467702;28;20599;-74
2023/05/27 07:03:00;;;;;;;18.83;6.63;;;;;17.20;102122.00;;;;10439315;28;21314;-76
2023/05/27 07:08:02;;;;;;;21.63;7.53;;;;;17.60;102125.00;;;;10357287;28;20497;-75
2023/05/27 07:13:04;;;;;;;17.00;6.78;;;;;18.00;102115.00;;;;10391958;28;20688;-74
2023/05/27 07:18:25;;;;;;;19.38;6.93;;;;;18.50;102127.00;;;;10376125;28;20576;-74
2023/05/27 07:23:31;;;;;;;17.27;7.10;;;;;18.30;102117.00;;;;10426657;28;20216;-72
2023/05/27 07:29:02;;;;;;;15.15;6.32;;;;;18.30;102114.00;;;;10484880;28;20335;-73
2023/05/27 07:34:22;;;;;;;18.85;7.05;;;;;18.60;102109.00;;;;10454454;28;20287;-76
2023/05/27 07:39:24;;;;;;;17.10;7.13;;;;;19.30;102113.00;;;;10441233;28;20228;-74
2023/05/27 07:44:27;;;;;;;16.38;6.55;;;;;19.60;102103.00;;;;10461171;28;20752;-76
2023/05/27 07:49:29;;;;;;;16.83;6.25;;;;;20.20;102099.00;;;;10437044;28;20227;-80
2023/05/27 07:54:51;;;;;;;16.77;6.57;;;;;20.70;102087.00;;;;10453736;28;20745;-81
2023/05/27 07:59:59;;;;;;;14.57;6.13;;;;;21.10;102084.00;;;;10397546;28;20363;-77
2023/05/27 08:05:15;;;;;;;19.92;6.93;;;;;21.60;102075.00;;;;10374159;28;20835;-77
2023/05/27 08:10:52;;;;;;;14.00;6.70;;;;;21.90;102082.00;;;;10378477;28;20710;-77
2023/05/27 08:16:23;;;;;;;18.35;6.47;;;;;22.30;102083.00;;;;10467756;28;20212;-76
2023/05/27 08:21:37;;;;;;;15.82;6.15;;;;;22.80;102075.00;;;;10475411;28;20287;-76
2023/05/27 08:26:58;;;;;;;17.50;6.05;;;;;22.60;102066.00;;;;10477727;28;20309;-75
2023/05/27 08:32:11;;;;;;;14.85;5.75;;;;;23.20;102064.00;;;;10454178;28;20240;-76
2023/05/27 08:37:12;;;;;;;13.48;6.20;;;;;23.50;102057.00;;;;10465026;28;20773;-75
2023/05/27 08:42:17;;;;;;;17.38;6.00;;;;;23.30;102052.00;;;;10503533;28;20231;-75
2023/05/27 08:47:19;;;;;;;14.63;6.40;;;;;23.60;102047.00;;;;10508933;28;20589;-75
2023/05/27 08:52:21;;;;;;;14.05;6.10;;;;;24.20;102041.00;;;;10499717;28;20209;-75
2023/05/27 08:57:29;;;;;;;17.83;6.05;;;;;24.60;102029.00;;;;10491097;28;20213;-75
2023/05/27 09:02:31;;;;;;;13.77;6.28;;;;;25.10;102011.00;;;;10487928;28;20242;-78
2023/05/27 09:07:33;;;;;;;13.23;5.88;;;;;24.90;102012.00;;;;10503201;28;20674;-79
2023/05/27 09:12:35;;;;;;;16.95;5.80;;;;;24.80;102004.00;;;;10486532;28;20205;-78
2023/05/27 09:17:44;;;;;;;18.02;7.28;;;;;25.30;101999.00;;;;10490070;28;20228;-78
2023/05/27 09:22:45;;;;;;;20.33;7.82;;;;;25.70;102005.00;;;;10477796;28;20208;-79
2023/05/27 09:27:47;;;;;;;16.30;6.47;;;;;25.90;101999.00;;;;10513102;28;20304;-80
2023/05/27 09:32:49;;;;;;;16.27;5.95;;;;;26.10;101989.00;;;;10508235;28;20204;-82
2023/05/27 09:37:50;;;;;;;9.98;5.60;;;;;26.20;101983.00;;;;10507037;28;20740;-81
2023/05/27 09:42:53;;;;;;;13.55;4.97;;;;;26.40;101977.00;;;;10472587;28;20329;-76
2023/05/27 09:47:55;;;;;;;16.67;5.97;;;;;26.60;101977.00;;;;10427261;28;20216;-75
2023/05/27 09:52:58;;;;;;;15.68;5.88;;;;;27.00;101971.00;;;;10446549;28;20285;-75
2023/05/27 09:58:12;;;;;;;14.23;6.05;;;;;27.30;101957.00;;;;10466783;28;20458;-77
2023/05/27 10:03:16;;;;;;;15.50;6.18;;;;;27.20;101951.00;;;;10489888;28;20588;-80
2023/05/27 10:08:21;;;;;;;12.55;5.65;;;;;27.20;101953.00;;;;10492154;28;20221;-78
2023/05/27 10:13:27;;;;;;;20.80;6.43;;;;;27.20;101950.00;;;;10484485;28;20296;-80
2023/05/27 10:18:30;;;;;;;13.77;5.80;;;;;26.90;101949.00;;;;10488147;28;20217;-80
2023/05/27 10:24:01;;;;;;;21.20;6.68;;;;;27.20;101943.00;;;;10457782;28;20539;-76
2023/05/27 10:29:07;;;;;;;15.90;5.78;;;;;27.70;101933.00;;;;10457839;28;20201;-76
2023/05/27 10:34:08;;;;;;;14.20;5.93;;;;;27.80;101915.00;;;;10448584;28;20278;-76
2023/05/27 10:39:15;;;;;;;14.73;6.85;;;;;27.90;101912.00;;;;10430028;28;20228;-76
2023/05/27 10:44:33;;;;;;;12.52;5.30;;;;;28.50;101907.00;;;;10432954;28;20201;-74
2023/05/27 10:49:37;;;;;;;13.00;5.03;;;;;28.50;101893.00;;;;10423494;28;20282;-76
2023/05/27 10:54:43;;;;;;;13.25;5.40;;;;;28.70;101888.00;;;;10395006;28;20224;-77
2023/05/27 10:59:53;;;;;;;14.93;5.50;;;;;29.00;101881.00;;;;10395744;28;20227;-76
2023/05/27 11:04:59;;;;;;;15.30;5.07;;;;;29.00;101880.00;;;;10395657;28;20697;-75
2023/05/27 11:10:00;;;;;;;10.63;4.90;;;;;29.30;101878.00;;;;10396033;28;20198;-76
2023/05/27 11:15:02;;;;;;;16.88;5.65;;;;;29.30;101862.00;;;;10398918;28;20355;-75
2023/05/27 11:20:05;;;;;;;12.38;5.22;;;;;29.40;101870.00;;;;10400013;28;20339;-77
2023/05/27 11:25:09;;;;;;;11.98;4.70;;;;;29.50;101851.00;;;;10378424;28;20200;-76
2023/05/27 11:30:12;;;;;;;14.40;5.30;;;;;29.90;101851.00;;;;10396014;28;20578;-77
2023/05/27 11:35:18;;;;;;;10.43;4.88;;;;;29.70;101843.00;;;;10469308;28;20258;-76
2023/05/27 11:40:20;;;;;;;15.20;5.95;;;;;30.10;101836.00;;;;10488753;28;20228;-78
2023/05/27 11:45:22;;;;;;;10.52;4.57;;;;;30.40;101828.00;;;;10489105;28;20658;-78
2023/05/27 11:50:24;;;;;;;12.23;4.82;;;;;30.70;101830.00;;;;10419198;28;20205;-78
2023/05/27 11:55:26;;;;;;;13.27;5.82;;;;;31.00;101823.00;;;;10421629;28;20588;-79
2023/05/27 12:00:27;;;;;;;11.63;4.72;;;;;30.90;101818.00;;;;10417835;28;20524;-78
2023/05/27 12:05:28;;;;;;;9.05;4.28;;;;;31.10;101807.00;;;;10420289;28;20702;-79
2023/05/27 12:10:36;;;;;;;11.52;4.30;;;;;30.90;101805.00;;;;10420734;28;20718;-78
2023/05/27 12:15:37;;;;;;;13.80;4.78;;;;;30.30;101799.00;;;;10419331;28;20308;-78
2023/05/27 12:20:38;;;;;;;12.10;4.80;;;;;30.20;101792.00;;;;10416502;28;20212;-78
2023/05/27 12:25:40;;;;;;;11.27;4.45;;;;;30.40;101789.00;;;;10402070;28;21548;-79
2023/05/27 12:30:41;;;;;;;14.43;4.60;;;;;30.80;101782.00;;;;10421223;28;20688;-78
2023/05/27 12:35:44;;;;;;;10.32;4.82;;;;;30.90;101768.00;;;;10386649;28;20213;-77
2023/05/27 12:40:46;;;;;;;10.60;4.47;;;;;30.80;101764.00;;;;10398753;28;20213;-77
2023/05/27 12:45:47;;;;;;;8.30;4.47;;;;;30.80;101754.00;;;;10380527;28;20560;-78
2023/05/27 12:50:49;;;;;;;12.77;4.70;;;;;30.80;101747.00;;;;10406360;28;20283;-77
2023/05/27 12:55:50;;;;;;;10.98;3.90;;;;;30.80;101745.00;;;;10401710;28;20913;-77
2023/05/27 13:00:52;;;;;;;12.02;4.15;;;;;30.20;101742.00;;;;10408535;28;20666;-75
2023/05/27 13:05:53;;;;;;;8.68;3.28;;;;;30.10;101735.00;;;;10395532;28;20649;-78
2023/05/27 13:10:55;;;;;;;10.80;4.22;;;;;30.10;101744.00;;;;10437158;28;20211;-77
2023/05/27 13:15:57;;;;;;;8.25;3.97;;;;;30.10;101727.00;;;;10442693;28;20548;-76
2023/05/27 13:20:58;;;;;;;10.02;4.10;;;;;30.50;101718.00;;;;10457537;28;20205;-75
2023/05/27 13:26:00;;;;;;;8.80;3.83;;;;;30.40;101717.00;;;;10492472;28;20232;-77
2023/05/27 13:31:03;;;;;;;12.18;4.65;;;;;30.00;101713.00;;;;10425745;28;20578;-77
2023/05/27 13:36:05;;;;;;;13.23;4.55;;;;;30.20;101707.00;;;;10477951;28;20298;-79
2023/05/27 13:41:06;;;;;;;10.98;4.18;;;;;30.20;101713.00;;;;10472154;28;20451;-83
2023/05/27 13:46:07;;;;;;;10.13;4.05;;;;;30.20;101714.00;;;;10440496;28;21596;-79
2023/05/27 13:51:09;;;;;;;7.47;3.42;;;;;30.10;101702.00;;;;10400017;28;20217;-78
2023/05/27 13:56:10;;;;;;;8.70;4.03;;;;;30.00;101694.00;;;;10399990;28;20216;-77
2023/05/27 14:01:12;;;;;;;15.57;4.55;;;;;30.00;101688.00;;;;10379993;28;20205;-77
2023/05/27 14:06:13;;;;;;;11.60;3.72;;;;;29.80;101680.00;;;;10381605;28;20812;-78
2023/05/27 14:11:14;;;;;;;7.95;3.72;;;;;29.80;101677.00;;;;10400165;28;20800;-77
2023/05/27 14:16:17;;;;;;;10.15;3.30;;;;;29.60;101667.00;;;;10399941;28;20293;-77
2023/05/27 14:21:18;;;;;;;6.90;3.45;;;;;29.50;101661.00;;;;10443287;28;20270;-75
2023/05/27 14:26:20;;;;;;;9.57;3.47;;;;;29.40;101660.00;;;;10484401;28;20375;-76
2023/05/27 14:31:21;;;;;;;10.48;3.60;;;;;29.60;101649.00;;;;10486235;28;21579;-77
2023/05/27 14:36:23;;;;;;;12.57;4.07;;;;;30.20;101639.00;;;;10486813;28;20331;-76
2023/05/27 14:41:26;;;;;;;7.20;2.83;;;;;30.40;101638.00;;;;10483817;28;20223;-74
2023/05/27 14:46:28;;;;;;;14.93;3.72;;;;;30.90;101628.00;;;;10484616;28;20267;-75
2023/05/27 14:51:29;;;;;;;11.63;3.20;;;;;32.40;101629.00;;;;10488189;28;20730;-78
2023/05/27 14:56:30;;;;;;;12.27;4.28;;;;;33.20;101634.00;;;;10495388;28;20193;-78
2023/05/27 15:01:32;;;;;;;13.50;4.40;;;;;34.20;101618.00;;;;10451194;28;21677;-78
2023/05/27 15:06:35;;;;;;;12.52;4.13;;;;;35.10;101624.00;;;;10428982;28;20220;-78
2023/05/27 15:11:38;;;;;;;10.40;4.15;;;;;36.10;101618.00;;;;10383515;28;20216;-77
2023/05/27 15:16:39;;;;;;;12.13;4.07;;;;;36.40;101619.00;;;;10398787;28;20284;-77
2023/05/27 15:21:40;;;;;;;10.38;3.70;;;;;36.60;101615.00;;;;10399383;28;20232;-76
2023/05/27 15:26:42;;;;;;;8.65;3.67;;;;;36.80;101608.00;;;;10399031;28;20868;-76
2023/05/27 15:31:43;;;;;;;12.25;6.63;;;;;34.00;101613.00;;;;10442658;28;20724;-74
2023/05/27 15:36:44;;;;;;;9.32;3.55;;;;;33.20;101620.00;;;;10506651;28;20671;-76
2023/05/27 15:41:46;;;;;;;8.63;3.97;;;;;32.50;101609.00;;;;10488373;28;20209;-76
2023/05/27 15:46:47;;;;;;;8.55;3.38;;;;;29.90;101613.00;;;;10478125;28;20221;-75
2023/05/27 15:51:48;;;;;;;10.32;4.03;;;;;27.90;101593.00;;;;10383226;28;20208;-76
2023/05/27 15:56:50;;;;;;;10.32;3.90;;;;;26.90;101591.00;;;;10352002;28;20212;-78
2023/05/27 16:01:51;;;;;;;10.23;4.00;;;;;26.50;101587.00;;;;10396985;28;20803;-77
2023/05/27 16:06:52;;;;;;;10.80;5.07;;;;;26.10;101577.00;;;;10404483;28;20265;-76
2023/05/27 16:11:54;;;;;;;11.60;3.60;;;;;25.90;101569.00;;;;10506269;28;20197;-77
2023/05/27 16:16:55;;;;;;;11.20;4.10;;;;;25.60;101566.00;;;;10496204;28;20223;-76
2023/05/27 16:21:57;;;;;;;8.93;3.60;;;;;25.30;101566.00;;;;10500309;28;20207;-76
2023/05/27 16:26:58;;;;;;;10.07;4.32;;;;;25.20;101559.00;;;;10458847;28;20209;-75
2023/05/27 16:31:59;;;;;;;8.15;3.63;;;;;25.00;101553.00;;;;10481102;28;20200;-76
2023/05/27 16:37:01;;;;;;;6.97;3.83;;;;;25.00;101548.00;;;;10531912;28;20574;-75
2023/05/27 16:42:02;;;;;;;11.18;3.30;;;;;24.90;101539.00;;;;10536010;28;20192;-77
2023/05/27 16:47:04;;;;;;;10.88;3.97;;;;;24.70;101537.00;;;;10475024;28;20680;-76
2023/05/27 16:52:06;;;;;;;5.95;2.90;;;;;24.70;101535.00;;;;10527822;28;20202;-76
2023/05/27 16:57:08;;;;;;;8.07;3.75;;;;;24.60;101535.00;;;;10513491;28;20697;-76
2023/05/27 17:02:10;;;;;;;7.68;2.95;;;;;24.50;101532.00;;;;10481837;28;20594;-76
2023/05/27 17:07:12;;;;;;;16.25;4.30;;;;;24.40;101522.00;;;;10462597;28;20550;-77
2023/05/27 17:12:13;;;;;;;12.13;4.15;;;;;24.30;101530.00;;;;10479462;28;20206;-76
2023/05/27 17:17:14;;;;;;;50.25;25.15;;;;;24.20;101524.00;;;;10477545;28;20287;-77
2023/05/27 17:22:16;;;;;;;15.70;4.10;;;;;24.10;101520.00;;;;10482666;28;20209;-76
2023/05/27 17:27:18;;;;;;;9.90;4.75;;;;;24.00;101524.00;;;;10455831;28;20295;-76
2023/05/27 17:32:19;;;;;;;9.98;5.25;;;;;23.90;101522.00;;;;10541325;28;20208;-76
2023/05/27 17:37:20;;;;;;;15.45;6.95;;;;;23.80;101525.00;;;;10519293;28;20205;-76
2023/05/27 17:42:22;;;;;;;21.95;14.52;;;;;23.70;101524.00;;;;10498170;28;20231;-76
2023/05/27 17:47:23;;;;;;;24.02;14.10;;;;;23.50;101518.00;;;;10503196;28;20217;-75
2023/05/27 17:52:24;;;;;;;11.43;5.00;;;;;23.40;101525.00;;;;10478672;28;20220;-76
2023/05/27 17:57:27;;;;;;;13.10;5.05;;;;;23.30;101517.00;;;;10458456;28;21417;-75
2023/05/27 18:02:29;;;;;;;12.10;5.70;;;;;23.10;101514.00;;;;10435721;28;20201;-76
2023/05/27 18:07:31;;;;;;;52.95;36.22;;;;;23.00;101523.00;;;;10489853;28;20218;-75
2023/05/27 18:12:32;;;;;;;268.05;188.77;;;;;22.80;101518.00;;;;10485350;28;20216;-76
2023/05/27 18:17:33;;;;;;;19.67;10.82;;;;;22.70;101515.00;;;;10477572;28;20213;-76
2023/05/27 18:22:35;;;;;;;8.00;4.47;;;;;22.50;101521.00;;;;10477105;28;20217;-77
2023/05/27 18:27:39;;;;;;;14.32;8.10;;;;;22.40;101519.00;;;;10483195;28;20296;-75
2023/05/27 18:32:44;;;;;;;24.92;15.35;;;;;22.20;101529.00;;;;10483291;28;20554;-75
2023/05/27 18:37:45;;;;;;;28.95;19.27;;;;;22.00;101527.00;;;;10477335;28;20666;-74
2023/05/27 18:42:47;;;;;;;64.30;52.53;;;;;21.90;101535.00;;;;10467860;28;21020;-76
2023/05/27 18:47:48;;;;;;;42.38;28.95;;;;;21.70;101535.00;;;;10474059;28;20272;-75
2023/05/27 18:52:49;;;;;;;57.63;32.63;;;;;21.50;101525.00;;;;10481373;28;20205;-76
2023/05/27 18:57:50;;;;;;;70.38;41.55;;;;;21.30;101525.00;;;;10486969;28;20209;-76
2023/05/27 19:02:52;;;;;;;22.17;12.55;;;;;21.10;101516.00;;;;10482481;28;20209;-75
2023/05/27 19:07:54;;;;;;;19.52;10.07;;;;;20.80;101521.00;;;;10488800;28;20218;-74
2023/05/27 19:12:55;;;;;;;13.80;6.63;;;;;20.60;101517.00;;;;10506582;28;20200;-74
2023/05/27 19:17:57;;;;;;;14.88;5.10;;;;;20.30;101524.00;;;;10516487;28;20225;-74
2023/05/27 19:22:59;;;;;;;20.42;9.13;;;;;20.00;101516.00;;;;10522046;28;20201;-74
2023/05/27 19:28:00;;;;;;;12.50;5.32;;;;;19.70;101517.00;;;;10510733;28;20267;-75
2023/05/27 19:33:02;;;;;;;16.15;8.35;;;;;19.40;101521.00;;;;10487633;28;20227;-75
2023/05/27 19:38:03;;;;;;;16.13;8.45;;;;;19.10;101533.00;;;;10498797;28;20181;-75
2023/05/27 19:43:04;;;;;;;13.45;7.35;;;;;18.80;101539.00;;;;10489663;28;20211;-76
2023/05/27 19:48:06;;;;;;;15.30;7.30;;;;;18.60;101536.00;;;;10501215;28;20217;-75
2023/05/27 19:53:07;;;;;;;15.15;7.22;;;;;18.30;101543.00;;;;10436580;28;20601;-74
2023/05/27 19:58:08;;;;;;;14.88;5.70;;;;;18.00;101546.00;;;;10477141;28;20209;-75
2023/05/27 20:03:09;;;;;;;19.25;9.00;;;;;17.80;101537.00;;;;10464572;28;20221;-74
2023/05/27 20:08:11;;;;;;;16.85;7.25;;;;;17.60;101537.00;;;;10490487;28;20621;-74
2023/05/27 20:13:12;;;;;;;16.88;7.60;;;;;17.70;101540.00;;;;10480775;28;20952;-74
2023/05/27 20:18:13;;;;;;;26.83;11.38;;;;;17.30;101538.00;;;;10524357;28;20229;-74
2023/05/27 20:23:14;;;;;;;10.82;4.20;;;;;17.10;101543.00;;;;10494593;28;20207;-74
2023/05/27 20:28:17;;;;;;;12.85;5.50;;;;;16.90;101538.00;;;;10495594;28;20205;-74
2023/05/27 20:33:18;;;;;;;9.82;4.57;;;;;16.70;101538.00;;;;10490621;28;20721;-75
2023/05/27 20:38:19;;;;;;;8.88;3.92;;;;;16.50;101545.00;;;;10475248;28;20220;-74
2023/05/27 20:43:20;;;;;;;8.60;4.05;;;;;16.30;101544.00;;;;10504911;28;20239;-74
2023/05/27 20:48:22;;;;;;;9.63;4.17;;;;;16.00;101544.00;;;;10506975;28;20240;-74
2023/05/27 20:53:23;;;;;;;9.48;3.90;;;;;15.90;101541.00;;;;10498067;28;20232;-75
2023/05/27 20:58:25;;;;;;;7.53;3.80;;;;;15.70;101531.00;;;;10518082;28;20217;-75
2023/05/27 21:03:26;;;;;;;11.43;4.40;;;;;15.60;101533.00;;;;10516306;28;20640;-73
2023/05/27 21:08:28;;;;;;;8.37;4.00;;;;;15.50;101540.00;;;;10520681;28;20205;-73
2023/05/27 21:13:30;;;;;;;90.50;44.33;;;;;15.40;101540.00;;;;10506977;28;20233;-75
2023/05/27 21:18:33;;;;;;;63.33;33.83;;;;;15.30;101533.00;;;;10504706;28;20266;-75
2023/05/27 21:23:35;;;;;;;44.50;18.80;;;;;15.30;101518.00;;;;10505689;28;20227;-75
2023/05/27 21:28:38;;;;;;;51.93;24.43;;;;;15.20;101524.00;;;;10528348;28;20248;-74
2023/05/27 21:33:40;;;;;;;29.00;13.73;;;;;15.20;101527.00;;;;10468950;28;20517;-74
2023/05/27 21:38:45;;;;;;;24.20;10.67;;;;;15.20;101524.00;;;;10485887;28;20232;-73
2023/05/27 21:43:50;;;;;;;33.60;13.77;;;;;15.20;101518.00;;;;10532071;28;20280;-73
2023/05/27 21:48:52;;;;;;;30.37;14.00;;;;;15.10;101524.00;;;;10526610;28;20221;-73
2023/05/27 21:53:56;;;;;;;26.80;10.33;;;;;15.10;101522.00;;;;10494205;28;20279;-73
2023/05/27 21:58:58;;;;;;;27.27;11.93;;;;;15.00;101519.00;;;;10502331;28;20683;-73
2023/05/27 22:04:00;;;;;;;27.17;12.00;;;;;14.90;101522.00;;;;10526910;28;20299;-74
2023/05/27 22:09:02;;;;;;;18.53;7.30;;;;;14.80;101514.00;;;;10545029;28;20216;-74
2023/05/27 22:14:04;;;;;;;23.30;7.80;;;;;14.70;101510.00;;;;10526544;28;20703;-75
2023/05/27 22:19:07;;;;;;;19.90;7.07;;;;;14.50;101512.00;;;;10540641;28;20220;-75
2023/05/27 22:24:09;;;;;;;19.83;7.07;;;;;14.40;101519.00;;;;10503465;28;20212;-75
2023/05/27 22:29:11;;;;;;;9.50;5.00;;;;;14.30;101510.00;;;;10513059;28;20237;-75
2023/05/27 22:34:13;;;;;;;16.50;7.30;;;;;14.20;101508.00;;;;10479391;28;20236;-75
2023/05/27 22:39:15;;;;;;;18.57;7.27;;;;;14.10;101512.00;;;;10522124;28;20217;-74
2023/05/27 22:44:17;;;;;;;14.40;5.60;;;;;14.00;101508.00;;;;10516181;28;20300;-75
2023/05/27 22:49:19;;;;;;;13.30;5.27;;;;;13.90;101508.00;;;;10523480;28;21035;-75
2023/05/27 22:54:20;;;;;;;16.73;6.23;;;;;13.80;101510.00;;;;10507516;28;20276;-75
2023/05/27 22:59:22;;;;;;;11.40;5.47;;;;;13.70;101515.00;;;;10500809;28;20315;-75
2023/05/27 23:04:23;;;;;;;14.13;5.27;;;;;13.60;101514.00;;;;10500626;28;20246;-75
2023/05/27 23:09:24;;;;;;;13.20;5.80;;;;;13.50;101512.00;;;;10500909;28;20198;-75
2023/05/27 23:14:26;;;;;;;19.00;6.13;;;;;13.40;101515.00;;;;10500676;28;20271;-75
2023/05/27 23:19:28;;;;;;;14.17;5.90;;;;;13.30;101499.00;;;;10483079;28;20277;-75
2023/05/27 23:24:30;;;;;;;16.00;6.50;;;;;13.20;101506.00;;;;10483010;28;20185;-75
2023/05/27 23:29:31;;;;;;;15.63;6.27;;;;;13.10;101506.00;;;;10500028;28;20189;-75
2023/05/27 23:34:32;;;;;;;14.47;6.33;;;;;13.00;101495.00;;;;10482540;28;20197;-75
2023/05/27 23:39:34;;;;;;;14.13;6.33;;;;;12.90;101501.00;;;;10500213;28;20223;-75
2023/05/27 23:44:36;;;;;;;18.93;7.43;;;;;12.90;101495.00;;;;10482092;28;20678;-75
2023/05/27 23:49:37;;;;;;;23.60;6.97;;;;;12.90;101491.00;;;;10499593;28;20658;-75
2023/05/27 23:54:38;;;;;;;23.70;10.57;;;;;12.80;101480.00;;;;10490699;28;20200;-75
2023/05/27 23:59:39;;;;;;;17.70;7.50;;;;;12.70;101474.00;;;;10540792;28;20303;-75
